KDTS Airport Information

Runway Information
Runway 14 Length 4999 ft width 100 ft
Elevation 22 ft Threshold 0 ft Heading 142
Runway 32 Length 4999 ft Width 100 ft
Elevation 21 ft Threshold 0 ft Heading 322
Airport Frequencies
Type A/D Name EGLIN APP/ Frequency 132.1 MHZ
Type ASOS Name ASOS Frequency 133.925 MHZ
Type CLD Name EGLIN CLNC Frequency 121.6 MHZ
Type UNIC Name UNICOM Frequency 123.075 MHZ
Airport Navaids
Airport Weather Information & NOTAM
ADDS - METARS form results

(1704 UTC 24 September 2018)
Data provider http://aviationweather.gov/metar/data/
 
METAR text: KDTS 241653Z 12016G23KT 10SM VCTS SCT022 BKN050 BKN085 28/23 A3003 RMK AO2 LTG DSNT SE AND W AND NW RAB39E50 SLP167 P0002 T02780233
Conditions at: KDTS (DESTIN , FL, US) observed 1653 UTC 24 September 2018
Temperature: 27.8°C (82°F)
Dewpoint: 23.3°C (74°F) [RH = 77%]
Pressure (altimeter): 30.03 inches Hg (1017.0 mb)
[Sea-level pressure: 1016.7 mb]
Winds: from the ESE (120 degrees) at 18 MPH (16 knots; 8.2 m/s)
gusting to 26 MPH (23 knots; 11.8 m/s)
Visibility: 10 or more miles (16+ km)
Ceiling: 5000 feet AGL
Clouds: scattered clouds at 2200 feet AGL
broken clouds at 5000 feet AGL
broken clouds at 8500 feet AGL
Weather: VCTS  (thunderstorm in vicinity)

METAR text: KDTS 241638Z 13008KT 8SM VCTS SCT019 29/25 A3002 RMK AO2 LTG DSNT ALQDS T02940250
Conditions at: KDTS (DESTIN , FL, US) observed 1638 UTC 24 September 2018
Temperature: 29.4°C (85°F)
Dewpoint: 25.0°C (77°F) [RH = 77%]
Pressure (altimeter): 30.02 inches Hg (1016.7 mb)
Winds: from the SE (130 degrees) at 9 MPH (8 knots; 4.1 m/s)
Visibility: 8 miles (13 km)
Ceiling: at least 12,000 feet AGL
Clouds: scattered clouds at 1900 feet AGL
Weather: VCTS  (thunderstorm in vicinity)